Soham, United Kingdom
Current Conditions -  °F | °C
As of 3:18 AM on Sunday 23 Nov 2014 (Local Time) from EGUN Reporting Station
Light Rain Light Rain  
Wind Chill: 52°   Ceiling: 2400
Heat Index: 52°   Visibility: 5mi
Dew Point: 52°   Wind: 7mph
Humidity: 100%   Direction: 330°NNW
Pressure: 29.96"   Gusts: NA
Location:  52.33°N, 0.34°E
Report Text: EGUN 230318Z AUTO 33006KT 8000 -RA BR SCT015 OVC024 11/11 A2996 RMK AO2 CIG 018V024
Loading
Personal Weather Stations






























Interactive Weather Map New forecast layout! Learn more

10-Day Weather Forecast

Advertisements
Track Severe Weather on mobile